Time;durP1;ratioP1;P1;durP2;ratioP2;P2;SDS_P1;SDS_P2;PMS_P1;PMS_P2;Temp;Humidity;BMP_temperature;BMP_pressure;BME280_temperature;BME280_humidity;BME280_pressure;Samples;Min_cycle;Max_cycle;Signal;HPM_P1;HPM_P2
2023/09/28 00:00:37;;;;;;;13.10;9.10;;;;;;;13.00;100.00;101348.35;89140;279;137618;-69
2023/09/28 00:02:41;;;;;;;11.30;6.90;;;;;;;12.97;100.00;101347.67;89499;277;26240;-72
2023/09/28 00:04:43;;;;;;;12.10;7.20;;;;;;;12.93;100.00;101347.28;89435;280;137300;-73
2023/09/28 00:06:46;;;;;;;10.80;7.70;;;;;;;12.88;100.00;101347.35;89024;276;22531;-70
2023/09/28 00:08:48;;;;;;;10.40;7.30;;;;;;;12.81;100.00;101346.79;88576;280;137163;-69
2023/09/28 00:10:50;;;;;;;12.60;7.50;;;;;;;12.75;100.00;101342.56;88576;278;26136;-70
2023/09/28 00:12:53;;;;;;;10.90;8.20;;;;;;;12.70;100.00;101346.05;88744;276;137129;-71
2023/09/28 00:14:55;;;;;;;10.00;7.70;;;;;;;12.64;100.00;101340.05;88717;276;24927;-72
2023/09/28 00:16:57;;;;;;;11.40;8.70;;;;;;;12.61;100.00;101348.77;88453;273;137213;-72
2023/09/28 00:19:00;;;;;;;12.60;7.50;;;;;;;12.58;100.00;101347.19;88552;278;25175;-70
2023/09/28 00:21:02;;;;;;;11.40;8.90;;;;;;;12.55;100.00;101348.19;88536;273;138378;-73
2023/09/28 00:23:04;;;;;;;14.20;10.10;;;;;;;12.56;100.00;101347.94;88609;273;22526;-73
2023/09/28 00:25:10;;;;;;;12.20;8.20;;;;;;;12.55;100.00;101351.05;88457;279;137396;-73
2023/09/28 00:27:12;;;;;;;16.50;10.20;;;;;;;12.57;100.00;101348.92;88912;279;25151;-73
2023/09/28 00:29:14;;;;;;;17.00;11.00;;;;;;;12.57;100.00;101352.67;88447;280;137375;-73
2023/09/28 00:31:16;;;;;;;14.80;10.60;;;;;;;12.56;100.00;101353.08;88573;280;24049;-73
2023/09/28 00:33:18;;;;;;;15.40;10.70;;;;;;;12.55;100.00;101355.33;88481;279;137037;-73
2023/09/28 00:35:21;;;;;;;19.50;11.00;;;;;;;12.53;100.00;101352.16;88533;272;25213;-73
2023/09/28 00:37:24;;;;;;;15.80;10.90;;;;;;;12.54;100.00;101350.89;88828;277;137633;-71
2023/09/28 00:39:26;;;;;;;19.20;12.20;;;;;;;12.52;100.00;101352.33;88585;283;23600;-71
2023/09/28 00:41:28;;;;;;;21.40;13.60;;;;;;;12.51;100.00;101349.05;88389;280;137464;-72
2023/09/28 00:43:29;;;;;;;16.50;11.10;;;;;;;12.48;100.00;101347.25;88559;273;24032;-73
2023/09/28 00:45:32;;;;;;;16.00;10.60;;;;;;;12.46;100.00;101347.62;88470;272;137509;-72
2023/09/28 00:47:38;;;;;;;17.40;12.00;;;;;;;12.45;100.00;101346.28;89006;280;24361;-72
2023/09/28 00:49:42;;;;;;;19.50;11.90;;;;;;;12.44;100.00;101347.38;88570;280;137567;-71
2023/09/28 00:51:47;;;;;;;17.30;9.90;;;;;;;12.34;100.00;101339.23;88724;280;25102;-71
2023/09/28 00:53:49;;;;;;;21.90;12.20;;;;;;;12.40;100.00;101349.77;88624;280;138301;-70
2023/09/28 00:55:53;;;;;;;16.70;11.40;;;;;;;12.42;100.00;101351.92;88480;281;25252;-68
2023/09/28 00:58:00;;;;;;;15.50;9.70;;;;;;;12.41;100.00;101349.49;88606;280;137343;-71
2023/09/28 01:00:18;;;;;;;18.80;11.50;;;;;;;12.39;100.00;101349.77;88608;272;25118;-71
2023/09/28 01:02:20;;;;;;;16.90;10.60;;;;;;;12.32;100.00;101351.54;88599;273;23863;-69
2023/09/28 01:04:23;;;;;;;15.60;11.00;;;;;;;12.28;100.00;101351.63;89002;280;137496;-73
2023/09/28 01:06:25;;;;;;;15.40;10.70;;;;;;;12.25;100.00;101349.48;88879;276;24094;-74
2023/09/28 01:08:27;;;;;;;16.70;12.10;;;;;;;12.23;100.00;101350.95;88530;279;137278;-72
2023/09/28 01:10:29;;;;;;;20.30;12.10;;;;;;;12.20;100.00;101351.38;88609;280;24140;-69
2023/09/28 01:12:31;;;;;;;17.80;11.80;;;;;;;12.16;100.00;101349.95;88464;280;137730;-72
2023/09/28 01:14:35;;;;;;;15.10;11.50;;;;;;;12.16;100.00;101353.04;88665;275;23606;-73
2023/09/28 01:16:38;;;;;;;20.20;12.50;;;;;;;12.15;100.00;101351.39;88428;281;138091;-72
2023/09/28 01:18:42;;;;;;;20.00;12.80;;;;;;;12.15;100.00;101350.62;88584;280;25169;-72
2023/09/28 01:20:47;;;;;;;18.20;12.30;;;;;;;12.15;100.00;101352.27;88577;280;137520;-73
2023/09/28 01:22:49;;;;;;;17.30;11.70;;;;;;;12.16;100.00;101349.98;88824;277;25184;-72
2023/09/28 01:24:53;;;;;;;16.70;11.10;;;;;;;12.20;100.00;101350.30;88538;276;137494;-72
2023/09/28 01:26:56;;;;;;;14.50;10.80;;;;;;;12.24;100.00;101349.44;88713;272;22928;-75
2023/09/28 01:28:59;;;;;;;13.30;10.50;;;;;;;12.26;100.00;101351.70;88510;280;137674;-72
2023/09/28 01:31:01;;;;;;;11.40;9.10;;;;;;;12.26;100.00;101350.58;88760;272;25321;-72
2023/09/28 01:33:04;;;;;;;12.30;11.00;;;;;;;12.28;100.00;101351.52;88388;272;138573;-71
2023/09/28 01:35:06;;;;;;;15.40;10.30;;;;;;;12.25;100.00;101353.27;88669;276;25760;-72
2023/09/28 01:37:10;;;;;;;11.20;9.00;;;;;;;12.20;100.00;101350.23;88341;281;137186;-71
2023/09/28 01:39:12;;;;;;;9.80;8.80;;;;;;;12.16;100.00;101351.31;88403;277;23742;-74
2023/09/28 01:41:14;;;;;;;10.50;8.10;;;;;;;12.12;100.00;101351.38;88613;276;137689;-71
2023/09/28 01:43:18;;;;;;;8.60;7.70;;;;;;;12.06;100.00;101354.45;88753;280;22533;-71
2023/09/28 01:45:19;;;;;;;12.80;9.20;;;;;;;12.01;100.00;101362.93;88532;277;138401;-70
2023/09/28 01:47:21;;;;;;;10.00;9.10;;;;;;;12.01;100.00;101362.27;88525;277;25114;-73
2023/09/28 01:49:23;;;;;;;9.80;8.80;;;;;;;11.99;100.00;101365.27;88444;281;137246;-73
2023/09/28 01:51:26;;;;;;;10.50;8.10;;;;;;;11.96;100.00;101363.89;88449;279;25319;-71
2023/09/28 01:53:27;;;;;;;9.60;8.70;;;;;;;11.92;100.00;101365.91;88691;280;137327;-73
2023/09/28 01:55:29;;;;;;;11.20;9.10;;;;;;;11.88;100.00;101365.06;88650;279;22625;-71
2023/09/28 01:57:34;;;;;;;11.50;9.80;;;;;;;11.85;100.00;101364.30;88442;280;137642;-73
2023/09/28 01:59:36;;;;;;;13.70;9.00;;;;;;;11.84;100.00;101365.06;88748;280;22615;-71
2023/09/28 02:01:40;;;;;;;12.60;9.60;;;;;;;11.83;100.00;101366.43;88677;272;137379;-72
2023/09/28 02:03:42;;;;;;;12.90;10.60;;;;;;;11.83;100.00;101369.70;88757;280;24235;-74
2023/09/28 02:05:44;;;;;;;14.40;10.50;;;;;;;11.82;100.00;101374.55;88548;281;138133;-74
2023/09/28 02:07:46;;;;;;;13.50;11.00;;;;;;;11.81;100.00;101377.73;88686;276;22800;-72
2023/09/28 02:09:48;;;;;;;13.70;10.20;;;;;;;11.82;100.00;101378.33;88570;280;137905;-72
2023/09/28 02:11:50;;;;;;;12.00;9.50;;;;;;;11.83;100.00;101381.11;88567;281;22801;-72
2023/09/28 02:13:52;;;;;;;12.70;9.90;;;;;;;11.84;100.00;101378.86;88682;280;137456;-72
2023/09/28 02:15:54;;;;;;;10.40;8.00;;;;;;;11.84;100.00;101381.26;88655;280;25178;-72
2023/09/28 02:17:56;;;;;;;11.90;8.90;;;;;;;11.84;100.00;101381.19;88502;279;137361;-73
2023/09/28 02:19:58;;;;;;;10.30;8.50;;;;;;;11.83;100.00;101384.10;88793;279;25184;-72
2023/09/28 02:22:02;;;;;;;13.50;9.60;;;;;;;11.82;100.00;101376.60;88673;280;136875;-70
2023/09/28 02:24:06;;;;;;;12.60;9.90;;;;;;;11.85;100.00;101380.52;88397;272;137680;-69
2023/09/28 02:26:08;;;;;;;11.80;9.30;;;;;;;11.82;100.00;101383.30;88722;280;24033;-72
2023/09/28 02:28:11;;;;;;;11.00;9.20;;;;;;;11.80;100.00;101382.60;88511;280;137404;-71
2023/09/28 02:30:17;;;;;;;13.30;9.10;;;;;;;11.80;100.00;101385.74;88584;280;22650;-70
2023/09/28 02:32:19;;;;;;;11.70;8.00;;;;;;;11.79;100.00;101381.70;88496;280;137704;-72
2023/09/28 02:34:21;;;;;;;11.70;9.20;;;;;;;11.80;100.00;101383.61;88642;276;25213;-70
2023/09/28 02:36:23;;;;;;;10.70;7.90;;;;;;;11.80;100.00;101382.17;88448;273;137295;-70
2023/09/28 02:38:25;;;;;;;9.10;8.20;;;;;;;11.79;100.00;101383.51;88623;280;22617;-71
2023/09/28 02:40:29;;;;;;;9.40;8.10;;;;;;;11.76;100.00;101384.69;89291;279;137211;-72
2023/09/28 02:42:32;;;;;;;9.50;8.40;;;;;;;11.74;100.00;101383.35;88630;277;23765;-72
2023/09/28 02:44:35;;;;;;;7.60;6.70;;;;;;;11.72;100.00;101384.96;89187;282;137045;-73
2023/09/28 02:46:37;;;;;;;10.90;8.20;;;;;;;11.72;100.00;101389.80;90261;277;22706;-75
2023/09/28 02:48:39;;;;;;;8.90;8.00;;;;;;;11.70;100.00;101390.20;88621;282;136999;-78
2023/09/28 02:50:41;;;;;;;16.20;8.70;;;;;;;11.67;100.00;101389.10;88688;280;25188;-78
2023/09/28 02:52:47;;;;;;;8.70;7.80;;;;;;;11.63;100.00;101386.44;88535;273;138333;-78
2023/09/28 02:54:49;;;;;;;7.30;6.50;;;;;;;11.62;100.00;101380.94;88585;274;25160;-72
2023/09/28 02:56:51;;;;;;;8.50;7.40;;;;;;;11.57;100.00;101379.19;88515;273;137091;-80
2023/09/28 02:58:53;;;;;;;10.50;7.60;;;;;;;11.53;100.00;101376.38;88578;280;24115;-74
2023/09/28 03:00:56;;;;;;;12.10;7.80;;;;;;;11.50;100.00;101373.64;88562;272;137287;-75
2023/09/28 03:03:06;;;;;;;10.10;8.00;;;;;;;11.57;100.00;101374.90;88805;280;26173;-71
2023/09/28 03:05:08;;;;;;;8.10;7.30;;;;;;;11.59;100.00;101369.70;88580;273;137334;-76
2023/09/28 03:07:10;;;;;;;8.30;7.50;;;;;;;11.59;100.00;101369.20;88682;278;22593;-72
2023/09/28 03:10:19;;;;;;;10.50;7.10;;;;;;;11.48;100.00;101370.38;87637;308;621964;-76
2023/09/28 03:12:21;;;;;;;8.90;8.00;;;;;;;11.52;100.00;101369.98;89309;292;137081;-76
2023/09/28 03:14:25;;;;;;;9.30;7.40;;;;;;;11.57;100.00;101369.61;89299;292;23664;-75
2023/09/28 03:16:28;;;;;;;7.90;6.60;;;;;;;11.64;100.00;101371.66;89331;292;136902;-76
2023/09/28 03:18:31;;;;;;;7.90;7.20;;;;;;;11.70;100.00;101374.18;89196;294;25096;-78
2023/09/28 03:20:33;;;;;;;7.10;6.40;;;;;;;11.73;100.00;101371.86;88285;293;136616;-75
2023/09/28 03:22:36;;;;;;;8.10;7.30;;;;;;;11.73;100.00;101373.67;88193;293;22495;-71
2023/09/28 03:24:38;;;;;;;9.00;7.00;;;;;;;11.69;100.00;101370.35;87865;290;567577;-76
2023/09/28 03:26:40;;;;;;;7.10;6.40;;;;;;;11.63;100.00;101370.81;88829;287;22529;-75
2023/09/28 03:28:42;;;;;;;6.90;6.30;;;;;;;11.62;100.00;101369.29;89079;287;136504;-77
2023/09/28 03:30:44;;;;;;;8.10;6.30;;;;;;;11.61;100.00;101372.48;89201;289;25213;-77
2023/09/28 03:32:47;;;;;;;7.60;6.70;;;;;;;11.48;100.00;101358.79;88034;289;136676;-74
2023/09/28 03:34:49;;;;;;;7.40;6.70;;;;;;;11.52;100.00;101372.80;88266;289;22568;-79
2023/09/28 03:36:51;;;;;;;9.80;7.00;;;;;;;11.47;100.00;101371.21;88153;284;136847;-75
2023/09/28 03:38:53;;;;;;;12.10;7.50;;;;;;;11.36;100.00;101361.13;88474;276;25121;-76
2023/09/28 03:40:56;;;;;;;7.50;6.80;;;;;;;11.42;100.00;101372.05;88314;282;136918;-75
2023/09/28 03:42:57;;;;;;;8.10;7.30;;;;;;;11.40;100.00;101375.00;88549;285;22537;-79
2023/09/28 03:44:59;;;;;;;8.20;7.40;;;;;;;11.35;100.00;101377.97;88243;278;136524;-77
2023/09/28 03:47:01;;;;;;;8.60;7.70;;;;;;;11.34;100.00;101376.53;88371;278;25087;-73
2023/09/28 03:49:03;;;;;;;8.40;7.20;;;;;;;11.35;100.00;101378.33;88217;278;136756;-77
2023/09/28 03:51:06;;;;;;;9.70;7.40;;;;;;;11.34;100.00;101384.00;88419;285;22537;-74
2023/09/28 03:53:08;;;;;;;8.80;7.90;;;;;;;11.34;100.00;101387.19;88325;277;136833;-72
2023/09/28 03:55:12;;;;;;;9.30;8.40;;;;;;;11.34;100.00;101387.94;88349;285;22655;-75
2023/09/28 03:57:13;;;;;;;9.90;8.00;;;;;;;11.33;100.00;101388.77;88410;277;136747;-76
2023/09/28 03:59:15;;;;;;;10.00;8.00;;;;;;;11.31;100.00;101387.01;88370;280;22533;-81
2023/09/28 04:01:18;;;;;;;9.30;8.40;;;;;;;11.30;100.00;101386.41;88273;284;137204;-71
2023/09/28 04:03:20;;;;;;;10.10;7.80;;;;;;;11.28;100.00;101384.60;88623;278;22530;-74
2023/09/28 04:05:26;;;;;;;9.70;7.50;;;;;;;11.24;100.00;101388.07;88718;277;137029;-74
2023/09/28 04:07:29;;;;;;;8.90;7.80;;;;;;;11.23;100.00;101386.09;88374;278;22537;-76
2023/09/28 04:09:32;;;;;;;8.20;7.40;;;;;;;11.22;100.00;101384.71;88400;277;138183;-79
2023/09/28 04:11:34;;;;;;;10.10;8.60;;;;;;;11.22;100.00;101382.84;88236;280;22556;-75
2023/09/28 04:13:37;;;;;;;9.50;8.60;;;;;;;11.25;100.00;101383.14;88757;285;137019;-78
2023/09/28 04:15:39;;;;;;;9.00;8.20;;;;;;;11.28;100.00;101381.77;88271;278;24100;-77
2023/09/28 04:17:42;;;;;;;10.10;9.10;;;;;;;11.24;100.00;101369.60;88318;285;136732;-73
2023/09/28 04:19:46;;;;;;;10.70;9.20;;;;;;;11.42;100.00;101382.02;88412;277;25213;-76
2023/09/28 04:21:48;;;;;;;10.00;8.80;;;;;;;11.62;100.00;101384.02;88300;281;136948;-76
2023/09/28 04:23:50;;;;;;;8.60;7.80;;;;;;;11.84;100.00;101376.22;88289;282;24113;-77
2023/09/28 04:25:54;;;;;;;10.10;9.10;;;;;;;12.20;100.00;101379.16;88224;281;136664;-76
2023/09/28 04:27:58;;;;;;;10.60;9.50;;;;;;;12.58;100.00;101376.30;88297;277;22537;-76
2023/09/28 04:30:00;;;;;;;11.80;10.60;;;;;;;13.00;100.00;101374.58;88414;278;136700;-71
2023/09/28 04:32:02;;;;;;;10.40;9.00;;;;;;;13.43;100.00;101378.40;88221;282;23754;-72
2023/09/28 04:34:07;;;;;;;10.50;9.40;;;;;;;13.84;100.00;101375.45;88333;279;22548;-75
2023/09/28 04:36:09;;;;;;;9.60;8.60;;;;;;;14.25;100.00;101381.06;88407;278;137061;-75
2023/09/28 04:38:14;;;;;;;8.80;7.90;;;;;;;14.63;100.00;101378.73;88320;278;22553;-78
2023/09/28 04:40:16;;;;;;;10.00;9.00;;;;;;;15.00;100.00;101384.17;88288;278;138349;-79
2023/09/28 04:42:21;;;;;;;13.70;8.90;;;;;;;15.38;100.00;101383.73;88248;279;25124;-72
2023/09/28 04:44:23;;;;;;;12.10;9.00;;;;;;;15.78;100.00;101384.37;88108;283;136502;-71
2023/09/28 04:46:26;;;;;;;10.70;9.00;;;;;;;16.14;100.00;101383.30;88332;281;25080;-79
2023/09/28 04:48:29;;;;;;;12.10;8.80;;;;;;;16.48;100.00;101383.81;88441;284;136410;-83
2023/09/28 04:50:30;;;;;;;15.70;9.30;;;;;;;16.80;100.00;101384.95;88483;284;22557;-76
2023/09/28 04:52:43;;;;;;;9.40;8.50;;;;;;;17.12;100.00;101387.05;88585;284;136950;-75
2023/09/28 04:54:51;;;;;;;;;;;;;;;17.45;99.76;101389.41;89014;285;25269;-76
2023/09/28 04:56:55;;;;;;;11.00;8.30;;;;;;;17.75;97.72;101388.27;91061;278;123393;-73
2023/09/28 04:58:59;;;;;;;10.00;9.00;;;;;;;18.05;95.56;101387.84;91123;285;22395;-78
2023/09/28 05:01:01;;;;;;;8.90;8.20;;;;;;;18.36;93.98;101390.05;91102;283;136862;-79
2023/09/28 05:03:03;;;;;;;14.00;7.30;;;;;;;18.62;91.85;101390.01;91209;283;22340;-76
2023/09/28 05:05:06;;;;;;;9.10;7.20;;;;;;;18.92;90.33;101390.11;91011;278;137076;-77
2023/09/28 05:07:08;;;;;;;8.80;7.20;;;;;;;19.21;88.16;101390.70;89706;278;22806;-70
2023/09/28 05:09:13;;;;;;;9.50;8.50;;;;;;;19.46;86.94;101393.97;88165;282;136222;-74
2023/09/28 05:11:16;;;;;;;9.10;8.20;;;;;;;19.63;84.98;101390.75;88357;276;24072;-74
2023/09/28 05:13:21;;;;;;;9.80;8.30;;;;;;;19.93;83.38;101398.45;88246;280;137115;-72
2023/09/28 05:15:23;;;;;;;9.70;8.00;;;;;;;20.20;81.31;101403.02;88289;283;25831;-74
2023/09/28 05:17:27;;;;;;;12.20;8.40;;;;;;;20.44;79.73;101399.94;88304;285;135842;-74
2023/09/28 05:19:30;;;;;;;8.90;8.10;;;;;;;20.68;78.67;101394.61;88572;278;22558;-73
2023/09/28 05:21:34;;;;;;;8.60;7.70;;;;;;;20.90;77.56;101391.19;88360;283;135742;-75
2023/09/28 05:23:37;;;;;;;13.20;6.70;;;;;;;21.15;76.09;101394.11;88401;282;23103;-77
2023/09/28 05:25:39;;;;;;;10.10;7.50;;;;;;;21.35;74.81;101392.58;88356;278;136126;-75
2023/09/28 05:27:40;;;;;;;9.00;7.50;;;;;;;21.50;73.62;101386.84;88412;282;22538;-76
2023/09/28 05:29:42;;;;;;;9.50;7.40;;;;;;;21.67;73.08;101384.64;88375;277;136137;-79
2023/09/28 05:31:46;;;;;;;9.10;7.70;;;;;;;21.90;72.62;101384.95;88477;276;25192;-71
2023/09/28 05:33:48;;;;;;;9.30;8.40;;;;;;;22.12;71.91;101385.48;88371;274;136424;-73
2023/09/28 05:35:50;;;;;;;9.50;7.70;;;;;;;22.25;70.94;101379.59;88669;279;24020;-72
2023/09/28 05:37:52;;;;;;;8.10;7.40;;;;;;;22.43;69.85;101387.91;89127;279;139510;-72
2023/09/28 05:39:54;;;;;;;7.70;7.00;;;;;;;22.50;69.29;101391.69;89102;282;22549;-80
2023/09/28 05:41:56;;;;;;;12.00;8.00;;;;;;;22.52;68.50;101390.01;88656;283;135655;-78
2023/09/28 05:43:59;;;;;;;9.20;7.80;;;;;;;22.50;68.53;101393.70;89053;284;24033;-81
2023/09/28 05:46:01;;;;;;;10.00;8.60;;;;;;;22.45;67.94;101396.77;88952;282;136587;-84
2023/09/28 05:48:03;;;;;;;9.40;8.40;;;;;;;22.45;67.71;101397.36;88783;282;136658;-76
2023/09/28 05:50:07;;;;;;;9.80;8.30;;;;;;;22.41;67.76;101396.89;88414;282;22534;-73
2023/09/28 05:52:09;;;;;;;8.70;7.80;;;;;;;22.39;67.88;101397.50;88186;282;137532;-75
2023/09/28 05:54:11;;;;;;;9.90;8.40;;;;;;;22.50;67.92;101395.12;88336;284;25192;-78
2023/09/28 05:56:13;;;;;;;10.30;7.90;;;;;;;22.64;67.98;101395.88;88388;277;136175;-78
2023/09/28 05:58:15;;;;;;;9.70;8.60;;;;;;;22.74;66.78;101400.14;88432;284;22523;-73
2023/09/28 06:00:17;;;;;;;11.70;8.20;;;;;;;22.67;66.93;101398.38;88373;284;137383;-72
2023/09/28 06:02:19;;;;;;;10.40;7.60;;;;;;;22.60;67.50;101403.83;88261;276;22537;-74
2023/09/28 06:04:25;;;;;;;10.60;7.50;;;;;;;22.60;67.56;101405.02;88225;282;136457;-74
2023/09/28 06:06:27;;;;;;;8.90;8.00;;;;;;;22.61;67.86;101407.38;88646;282;22542;-74
2023/09/28 06:08:29;;;;;;;15.90;8.30;;;;;;;22.77;67.79;101409.86;88334;282;136079;-73
2023/09/28 06:10:33;;;;;;;12.60;8.70;;;;;;;23.04;67.10;101407.13;88441;279;23651;-73
2023/09/28 06:12:35;;;;;;;8.60;7.70;;;;;;;23.27;66.03;101401.39;88651;278;136344;-73
2023/09/28 06:14:38;;;;;;;8.30;7.50;;;;;;;23.46;65.10;101402.80;88411;282;24018;-76
2023/09/28 06:16:42;;;;;;;13.00;8.40;;;;;;;23.65;64.23;101403.29;88312;282;137110;-76
2023/09/28 06:18:44;;;;;;;10.80;8.50;;;;;;;23.77;63.97;101399.91;90118;284;25244;-76
2023/09/28 06:20:47;;;;;;;8.70;7.70;;;;;;;23.81;63.45;101400.48;88841;285;136415;-75
2023/09/28 06:22:50;;;;;;;20.20;8.80;;;;;;;23.78;63.51;101398.14;88410;285;24377;-75
2023/09/28 06:24:56;;;;;;;9.90;8.30;;;;;;;23.56;64.04;101399.83;88446;284;137517;-76
2023/09/28 06:27:00;;;;;;;11.20;8.20;;;;;;;23.12;65.26;101398.73;88615;284;24216;-75
2023/09/28 06:29:03;;;;;;;16.20;9.10;;;;;;;22.55;66.97;101399.94;88187;280;137158;-76
2023/09/28 06:31:06;;;;;;;10.20;8.80;;;;;;;21.96;68.73;101399.90;88502;282;25080;-76
2023/09/28 06:33:08;;;;;;;11.60;9.00;;;;;;;21.43;71.65;101408.14;88911;282;136842;-75
2023/09/28 06:35:10;;;;;;;17.30;10.50;;;;;;;20.88;73.57;101407.79;88410;281;22526;-77
2023/09/28 06:37:12;;;;;;;13.10;10.30;;;;;;;20.41;76.73;101407.98;88332;281;137493;-74
2023/09/28 06:39:14;;;;;;;17.80;10.20;;;;;;;20.07;78.47;101408.44;88374;282;24014;-72
2023/09/28 06:41:16;;;;;;;13.10;9.90;;;;;;;19.75;80.72;101399.21;88252;282;136613;-74
2023/09/28 06:43:18;;;;;;;10.30;9.30;;;;;;;19.62;81.63;101410.66;88389;282;22523;-73
2023/09/28 06:45:21;;;;;;;17.90;10.10;;;;;;;19.49;82.77;101412.25;89021;282;136420;-74
2023/09/28 06:47:24;;;;;;;14.90;9.90;;;;;;;19.34;83.45;101412.97;91294;274;22346;-80
2023/09/28 06:49:36;;;;;;;14.70;9.20;;;;;;;19.27;84.89;101414.06;91029;282;136319;-78
2023/09/28 06:51:38;;;;;;;10.30;9.50;;;;;;;19.19;85.13;101411.38;88469;276;24113;-73
2023/09/28 06:53:41;;;;;;;12.40;9.60;;;;;;;19.10;85.88;101411.61;88141;279;136052;-72
2023/09/28 06:55:44;;;;;;;11.80;9.50;;;;;;;19.03;86.93;101408.73;88251;276;22530;-73
2023/09/28 06:57:54;;;;;;;13.00;9.00;;;;;;;18.98;87.90;101412.45;88185;282;136338;-74
2023/09/28 06:59:56;;;;;;;11.40;9.80;;;;;;;18.86;88.47;101411.23;88473;279;24180;-73
2023/09/28 07:01:58;;;;;;;12.90;9.50;;;;;;;18.75;89.82;101412.22;88782;282;136356;-72
2023/09/28 07:04:00;;;;;;;13.60;10.10;;;;;;;18.70;90.36;101412.81;88400;282;24211;-71
2023/09/28 07:06:02;;;;;;;13.00;10.00;;;;;;;18.72;90.89;101409.33;89037;282;136650;-73
2023/09/28 07:08:06;;;;;;;13.20;11.90;;;;;;;18.75;90.97;101416.61;88577;283;136568;-73
2023/09/28 07:10:10;;;;;;;15.20;13.70;;;;;;;18.74;91.10;101409.45;88511;279;24027;-73
2023/09/28 07:12:12;;;;;;;15.20;13.70;;;;;;;18.78;91.20;101413.32;88217;275;136942;-72
2023/09/28 07:14:13;;;;;;;11.90;10.70;;;;;;;18.85;91.78;101413.26;88451;281;26132;-71
2023/09/28 07:16:15;;;;;;;10.50;9.50;;;;;;;18.94;91.87;101407.23;88296;275;137690;-72
2023/09/28 07:18:17;;;;;;;9.30;8.30;;;;;;;19.01;91.73;101412.08;88293;274;26524;-71
2023/09/28 07:20:20;;;;;;;9.50;8.50;;;;;;;19.06;91.44;101412.59;88399;281;136380;-72
2023/09/28 07:22:23;;;;;;;9.50;8.40;;;;;;;19.14;91.10;101413.70;88493;281;22553;-70
2023/09/28 07:24:26;;;;;;;10.30;8.00;;;;;;;19.20;90.92;101411.29;88358;273;136747;-71
2023/09/28 07:26:28;;;;;;;7.80;7.00;;;;;;;19.27;91.06;101409.45;88283;279;22600;-73
2023/09/28 07:28:30;;;;;;;9.70;7.70;;;;;;;19.31;91.61;101410.70;88163;282;136333;-73
2023/09/28 07:30:32;;;;;;;8.40;7.70;;;;;;;19.30;91.40;101411.20;88406;276;22541;-71
2023/09/28 07:32:34;;;;;;;9.20;8.20;;;;;;;19.27;91.98;101407.27;88301;279;137628;-73
2023/09/28 07:34:37;;;;;;;8.60;7.30;;;;;;;19.30;92.34;101406.55;88277;276;25083;-73
2023/09/28 07:36:39;;;;;;;9.40;7.90;;;;;;;19.37;92.30;101409.27;88980;276;135876;-70
2023/09/28 07:38:43;;;;;;;9.90;6.90;;;;;;;19.47;92.23;101408.90;88479;281;22547;-73
2023/09/28 07:40:45;;;;;;;8.80;6.60;;;;;;;19.53;91.34;101409.88;88351;274;137831;-72
2023/09/28 07:42:49;;;;;;;9.40;6.80;;;;;;;19.55;91.15;101408.11;88564;275;25099;-74
2023/09/28 07:44:51;;;;;;;9.40;7.40;;;;;;;19.61;91.09;101408.77;88145;282;136350;-73
2023/09/28 07:46:54;;;;;;;8.90;6.70;;;;;;;19.67;91.29;101409.15;88337;279;22606;-74
2023/09/28 07:48:56;;;;;;;8.70;7.00;;;;;;;19.72;90.95;101409.73;89701;281;136378;-74
2023/09/28 07:50:58;;;;;;;11.30;7.00;;;;;;;19.77;90.39;101408.45;88465;282;22879;-72
2023/09/28 07:53:00;;;;;;;10.30;7.30;;;;;;;19.83;90.30;101403.71;88368;273;136317;-73
2023/09/28 07:55:03;;;;;;;12.60;7.10;;;;;;;19.93;90.79;101405.96;88331;275;25131;-72
2023/09/28 07:57:07;;;;;;;10.00;6.50;;;;;;;19.97;90.98;101401.24;88663;281;137237;-71
2023/09/28 07:59:09;;;;;;;9.50;6.70;;;;;;;19.98;91.16;101399.98;88536;274;22596;-74
2023/09/28 08:01:14;;;;;;;7.60;6.90;;;;;;;20.03;90.93;101401.35;88288;273;136166;-73
2023/09/28 08:03:16;;;;;;;8.90;6.20;;;;;;;20.11;89.63;101402.71;88319;282;25243;-70
2023/09/28 08:05:20;;;;;;;6.80;6.10;;;;;;;20.16;89.24;101403.83;88552;275;136023;-70
2023/09/28 08:07:24;;;;;;;8.70;6.60;;;;;;;20.21;88.59;101402.89;88586;275;24669;-73
2023/09/28 08:09:25;;;;;;;7.50;6.70;;;;;;;20.28;88.48;101400.64;88469;282;136928;-70
2023/09/28 08:11:28;;;;;;;7.00;6.50;;;;;;;20.35;88.77;101405.71;89022;274;25131;-72
2023/09/28 08:13:30;;;;;;;5.90;5.40;;;;;;;20.44;88.65;101404.28;88235;276;137817;-74
2023/09/28 08:15:32;;;;;;;6.40;5.90;;;;;;;20.53;88.02;101408.31;89078;274;22524;-74
2023/09/28 08:17:39;;;;;;;6.80;6.20;;;;;;;20.60;87.75;101400.84;88341;277;136556;-73
2023/09/28 08:19:43;;;;;;;6.40;5.90;;;;;;;20.68;86.56;101398.70;88549;282;25239;-72
2023/09/28 08:21:46;;;;;;;8.80;6.30;;;;;;;20.74;86.37;101399.06;88684;278;136018;-72
2023/09/28 08:23:52;;;;;;;10.00;6.70;;;;;;;20.73;85.73;101384.99;88530;284;23953;-73
2023/09/28 08:25:54;;;;;;;16.10;6.50;;;;;;;20.85;85.60;101389.11;88431;283;136330;-74
2023/09/28 08:27:56;;;;;;;6.70;5.60;;;;;;;20.88;85.75;101390.61;88888;282;22569;-70
2023/09/28 08:30:01;;;;;;;6.50;5.80;;;;;;;20.90;85.54;101389.26;88981;279;136652;-72
2023/09/28 08:32:05;;;;;;;6.10;5.50;;;;;;;20.97;85.07;101387.48;88780;282;136777;-70
2023/09/28 08:34:09;;;;;;;6.90;5.70;;;;;;;21.01;85.27;101389.90;88561;282;25161;-72
2023/09/28 08:36:14;;;;;;;5.90;5.30;;;;;;;21.08;85.15;101388.15;88283;282;137607;-72
2023/09/28 08:38:16;;;;;;;6.90;5.70;;;;;;;21.15;84.43;101391.19;88426;282;22499;-71
2023/09/28 08:40:18;;;;;;;7.00;6.40;;;;;;;21.19;84.18;101387.71;88890;283;137473;-72
2023/09/28 08:42:25;;;;;;;7.20;5.60;;;;;;;21.26;83.95;101387.23;88364;283;22538;-69
2023/09/28 08:44:31;;;;;;;7.80;5.80;;;;;;;21.31;83.29;101386.35;90503;283;135749;-75
2023/09/28 08:46:43;;;;;;;8.20;5.20;;;;;;;21.34;83.50;101382.20;89262;283;24294;-73
2023/09/28 08:48:51;;;;;;;9.40;6.20;;;;;;;21.40;83.11;101372.20;89264;278;137312;-73
2023/09/28 08:51:04;;;;;;;6.30;5.70;;;;;;;21.47;83.34;101371.03;88430;277;25121;-73
2023/09/28 08:53:08;;;;;;;5.70;5.20;;;;;;;21.53;82.72;101369.70;88926;281;136309;-73
2023/09/28 08:55:12;;;;;;;7.80;6.00;;;;;;;21.59;82.54;101368.98;88434;280;22691;-72
2023/09/28 08:57:15;;;;;;;9.20;6.10;;;;;;;21.65;82.27;101364.38;88595;278;137298;-72
2023/09/28 08:59:18;;;;;;;9.80;6.50;;;;;;;21.71;82.32;101361.22;88452;273;25172;-71
2023/09/28 09:01:21;;;;;;;7.60;6.30;;;;;;;21.79;82.08;101358.14;88466;282;136314;-75
2023/09/28 09:03:24;;;;;;;6.80;5.90;;;;;;;21.87;81.62;101362.16;88538;273;23974;-72
2023/09/28 09:05:29;;;;;;;12.50;6.50;;;;;;;21.93;80.63;101359.41;88265;282;135678;-70
2023/09/28 09:07:32;;;;;;;10.80;6.60;;;;;;;21.97;80.32;101355.91;88361;274;22534;-72
2023/09/28 09:09:40;;;;;;;7.90;6.00;;;;;;;22.03;80.48;101355.91;88285;274;136625;-73
2023/09/28 09:11:52;;;;;;;6.30;5.70;;;;;;;22.12;80.10;101359.74;88834;282;24381;-73
2023/09/28 09:13:57;;;;;;;6.60;5.90;;;;;;;22.19;80.16;101359.60;88515;282;137289;-72
2023/09/28 09:15:59;;;;;;;11.90;6.00;;;;;;;22.28;79.63;101360.18;88333;274;23691;-73
2023/09/28 09:18:03;;;;;;;7.00;5.20;;;;;;;22.35;79.25;101362.23;88530;273;136044;-74
2023/09/28 09:20:08;;;;;;;11.50;5.90;;;;;;;22.40;79.08;101354.98;88879;280;136194;-72
2023/09/28 09:22:28;;;;;;;8.60;5.90;;;;;;;22.48;78.69;101354.49;88524;279;25151;-71
2023/09/28 09:24:55;;;;;;;7.60;6.60;;;;;;;22.56;78.05;101348.77;88195;279;136384;-73
2023/09/28 09:26:57;;;;;;;9.60;6.50;;;;;;;22.61;77.61;101347.27;88220;279;25362;-74
2023/09/28 09:29:00;;;;;;;14.00;6.30;;;;;;;22.63;77.39;101346.23;88794;282;135886;-71